Terminal Aerodrome Forecast
Issued by NWS North Platte, NE

Home | Current Version | Previous Version | Graphics & Text | Print | Product List | Glossary On
Versions: 1 2 3 4 5 6 7 8 9 10 11 12 13 14
000
FTUS43 KLBF 301727
TAFVTN
TAF
KVTN 301727Z 3018/0118 31019G27KT 3SM BLSN VCSH OVC020
     FM301900 31018G26KT 5SM BLSN VCSH OVC030
     FM010100 31010KT P6SM BKN040=

USA.gov is the U.S. government's official web portal to all federal, state and local government web resources and services.